createdAt,value
2022-08-07T00:00:13.834Z,1.70
2022-08-07T00:02:48.635Z,1.27
2022-08-07T00:05:17.915Z,1.50
2022-08-07T00:07:48.226Z,1.30
2022-08-07T00:10:31.487Z,1.73
2022-08-07T00:13:17.633Z,1.20
2022-08-07T00:16:00.070Z,1.77
2022-08-07T00:18:32.153Z,1.50
2022-08-07T00:21:08.323Z,1.45
2022-08-07T00:23:58.579Z,1.50
2022-08-07T00:26:49.379Z,1.48
2022-08-07T00:29:18.579Z,1.40
2022-08-07T00:31:55.920Z,1.60
2022-08-07T00:34:28.946Z,1.50
2022-08-07T00:36:57.775Z,1.45
2022-08-07T00:39:29.986Z,1.40
2022-08-07T00:42:05.018Z,1.60
2022-08-07T00:44:35.596Z,1.48
2022-08-07T00:47:15.860Z,1.75
2022-08-07T00:50:20.458Z,1.35
2022-08-07T00:52:56.206Z,1.75
2022-08-07T00:56:02.567Z,1.63
2022-08-07T00:58:13.385Z,1.52
2022-08-07T01:00:53.493Z,1.60
2022-08-07T01:03:56.252Z,1.92
2022-08-07T01:06:10.663Z,1.70
2022-08-07T01:08:51.408Z,1.80
2022-08-07T01:12:23.740Z,1.65
2022-08-07T01:14:15.408Z,1.83
2022-08-07T01:16:47.159Z,1.60
2022-08-07T01:19:20.755Z,1.50
2022-08-07T01:21:56.408Z,1.70
2022-08-07T01:24:36.106Z,1.80
2022-08-07T01:27:05.898Z,1.75
2022-08-07T01:29:47.375Z,1.50
2022-08-07T01:32:15.562Z,1.48
2022-08-07T01:34:47.354Z,1.73
2022-08-07T01:37:20.082Z,1.55
2022-08-07T01:39:50.748Z,1.83
2022-08-07T01:42:38.493Z,1.88
2022-08-07T01:45:18.549Z,1.60
2022-08-07T01:48:19.472Z,1.65
2022-08-07T01:52:02.098Z,1.73
2022-08-07T01:54:12.076Z,1.55
2022-08-07T01:57:08.682Z,1.80
2022-08-07T02:00:12.983Z,1.77
2022-08-07T02:03:19.108Z,1.80
2022-08-07T02:05:59.783Z,1.88
2022-08-07T02:08:40.952Z,1.55
2022-08-07T02:11:57.726Z,1.70
2022-08-07T02:14:11.416Z,1.67
2022-08-07T02:17:00.766Z,1.65
2022-08-07T02:20:07.431Z,1.40
2022-08-07T02:22:33.177Z,1.50
2022-08-07T02:25:13.872Z,1.30
2022-08-07T02:27:57.370Z,1.40
2022-08-07T02:30:27.870Z,1.42
2022-08-07T02:33:03.918Z,1.38
2022-08-07T02:36:29.500Z,1.58
2022-08-07T02:38:38.453Z,1.20
2022-08-07T02:41:08.001Z,1.20
2022-08-07T02:43:43.343Z,1.10
2022-08-07T02:46:26.159Z,1.45
2022-08-07T02:48:58.456Z,1.40
2022-08-07T02:51:42.956Z,1.50
2022-08-07T02:54:25.209Z,1.40
2022-08-07T02:56:56.955Z,1.40
2022-08-07T02:59:29.377Z,1.50
2022-08-07T03:02:03.569Z,1.30
2022-08-07T03:04:32.845Z,1.30
2022-08-07T03:07:03.283Z,1.30
2022-08-07T03:09:43.870Z,1.60
2022-08-07T03:12:22.274Z,1.50
2022-08-07T03:15:07.386Z,1.73
2022-08-07T03:17:54.075Z,2.03
2022-08-07T03:20:26.254Z,1.90
2022-08-07T03:22:55.809Z,1.90
2022-08-07T03:25:32.459Z,1.90
2022-08-07T03:28:37.441Z,1.90
2022-08-07T03:31:26.243Z,1.70
2022-08-07T03:34:18.519Z,1.58
2022-08-07T03:36:57.391Z,1.50
2022-08-07T03:39:46.426Z,1.50
2022-08-07T03:42:20.043Z,1.50
2022-08-07T03:44:53.341Z,1.60
2022-08-07T03:47:29.600Z,1.60
2022-08-07T03:50:22.891Z,1.80
2022-08-07T03:52:57.326Z,2.05
2022-08-07T03:55:48.724Z,1.92
2022-08-07T03:59:05.064Z,1.75
2022-08-07T04:01:11.255Z,1.60
2022-08-07T04:03:53.549Z,1.70
2022-08-07T04:06:37.441Z,1.50
2022-08-07T04:09:15.761Z,1.40
2022-08-07T04:12:27.030Z,1.58
2022-08-07T04:14:46.375Z,1.30
2022-08-07T04:18:31.410Z,1.80
2022-08-07T04:20:12.874Z,1.48
2022-08-07T04:22:53.214Z,1.70
2022-08-07T04:25:29.124Z,1.40
2022-08-07T04:28:01.191Z,1.45
2022-08-07T04:30:39.347Z,1.45
2022-08-07T04:33:21.359Z,1.60
2022-08-07T04:35:53.233Z,1.70
2022-08-07T04:38:28.724Z,2.55
2022-08-07T04:40:58.323Z,3.50
2022-08-07T04:44:09.888Z,4.97
2022-08-07T04:47:04.574Z,4.85
2022-08-07T04:49:57.892Z,3.03
2022-08-07T04:52:52.255Z,2.60
2022-08-07T04:58:12.228Z,2.05
2022-08-07T05:00:14.423Z,1.67
2022-08-07T05:04:00.935Z,1.38
2022-08-07T05:06:55.174Z,1.10
2022-08-07T05:10:05.586Z,1.83
2022-08-07T05:12:59.980Z,1.75
2022-08-07T05:15:45.425Z,1.33
2022-08-07T05:18:41.504Z,1.33
2022-08-07T05:21:14.569Z,1.10
2022-08-07T05:24:02.545Z,1.20
2022-08-07T05:26:35.018Z,1.25
2022-08-07T05:29:11.676Z,1.20
2022-08-07T05:31:47.434Z,1.40
2022-08-07T05:34:26.159Z,1.25
2022-08-07T05:36:57.682Z,1.10
2022-08-07T05:40:13.722Z,1.30
2022-08-07T05:42:34.404Z,1.20
2022-08-07T05:45:14.343Z,1.27
2022-08-07T05:48:01.219Z,1.20
2022-08-07T05:50:39.598Z,1.40
2022-08-07T05:54:09.343Z,1.40
2022-08-07T05:56:06.125Z,1.35
2022-08-07T05:58:41.728Z,1.30
2022-08-07T06:01:27.044Z,1.30
2022-08-07T06:04:07.212Z,1.48
2022-08-07T06:06:46.354Z,1.40
2022-08-07T06:09:18.266Z,1.40
2022-08-07T06:11:49.920Z,1.50
2022-08-07T06:14:28.980Z,1.13
2022-08-07T06:17:07.099Z,1.60
2022-08-07T06:19:51.819Z,1.60
2022-08-07T06:22:40.114Z,1.60
2022-08-07T06:25:23.551Z,1.42
2022-08-07T06:28:10.775Z,1.60
2022-08-07T06:31:17.837Z,1.40
2022-08-07T06:33:54.836Z,1.40
2022-08-07T06:36:35.027Z,1.58
2022-08-07T06:40:17.715Z,1.33
2022-08-07T06:42:42.392Z,1.40
2022-08-07T06:45:35.773Z,1.60
2022-08-07T06:48:11.408Z,1.60
2022-08-07T06:50:47.710Z,1.40
2022-08-07T06:55:29.105Z,1.33
2022-08-07T06:56:16.779Z,1.40
2022-08-07T07:00:13.977Z,1.40
2022-08-07T07:01:50.978Z,1.52
2022-08-07T07:04:28.071Z,1.33
2022-08-07T07:07:19.036Z,1.45
2022-08-07T07:09:50.969Z,1.00
2022-08-07T07:12:48.716Z,1.27
2022-08-07T07:15:37.666Z,1.30
2022-08-07T07:18:46.972Z,1.10
2022-08-07T07:21:40.305Z,0.93
2022-08-07T07:24:17.332Z,1.23
2022-08-07T07:26:51.803Z,1.13
2022-08-07T07:29:40.634Z,1.00
2022-08-07T07:32:16.938Z,0.82
2022-08-07T07:34:54.646Z,1.05
2022-08-07T07:37:52.640Z,1.13
2022-08-07T07:40:26.052Z,1.08
2022-08-07T07:42:58.586Z,0.80
2022-08-07T07:46:49.875Z,0.70
2022-08-07T07:48:35.769Z,0.70
2022-08-07T07:51:08.645Z,0.97
2022-08-07T07:53:51.731Z,0.80
2022-08-07T07:56:30.145Z,0.80
2022-08-07T07:59:06.072Z,0.90
2022-08-07T08:02:04.817Z,0.80
2022-08-07T08:04:34.056Z,0.80
2022-08-07T08:07:07.746Z,0.80
2022-08-07T08:09:52.407Z,0.90
2022-08-07T08:12:51.585Z,0.80
2022-08-07T08:15:17.351Z,0.98
2022-08-07T08:17:57.334Z,0.80
2022-08-07T08:20:32.220Z,0.90
2022-08-07T08:23:21.186Z,0.70
2022-08-07T08:26:20.482Z,0.80
2022-08-07T08:28:53.597Z,0.80
2022-08-07T08:31:58.998Z,0.75
2022-08-07T08:34:35.930Z,1.10
2022-08-07T08:37:09.703Z,1.05
2022-08-07T08:39:54.891Z,0.80
2022-08-07T08:42:51.667Z,0.80
2022-08-07T08:46:00.662Z,0.70
2022-08-07T08:49:05.776Z,0.80
2022-08-07T08:52:18.941Z,1.00
2022-08-07T08:55:53.926Z,0.68
2022-08-07T08:59:06.448Z,0.70
2022-08-07T09:02:14.413Z,0.65
2022-08-07T09:05:37.717Z,0.60
2022-08-07T09:08:55.462Z,0.70
2022-08-07T09:11:50.791Z,0.60
2022-08-07T09:14:58.772Z,0.50
2022-08-07T09:18:08.728Z,0.60
2022-08-07T09:21:13.780Z,0.65
2022-08-07T09:24:31.520Z,0.45
2022-08-07T09:27:59.870Z,0.60
2022-08-07T09:31:05.194Z,0.52
2022-08-07T09:34:53.983Z,0.70
2022-08-07T09:38:26.530Z,0.55
2022-08-07T09:41:58.319Z,0.60
2022-08-07T09:47:25.996Z,0.50
2022-08-07T09:48:29.726Z,0.60
2022-08-07T09:52:10.266Z,0.50
2022-08-07T09:55:28.711Z,0.45
2022-08-07T09:58:20.765Z,0.70
2022-08-07T10:01:51.692Z,0.55
2022-08-07T10:05:14.965Z,0.45
2022-08-07T10:08:51.475Z,0.60
2022-08-07T10:12:16.679Z,0.60
2022-08-07T10:15:44.891Z,0.50
2022-08-07T10:18:44.229Z,0.63
2022-08-07T10:22:14.004Z,0.52
2022-08-07T10:25:14.110Z,0.50
2022-08-07T10:28:14.931Z,0.50
2022-08-07T10:30:58.722Z,0.50
2022-08-07T10:34:06.462Z,0.50
2022-08-07T10:38:09.876Z,0.45
2022-08-07T10:41:51.971Z,0.45
2022-08-07T10:45:03.381Z,0.55
2022-08-07T10:48:20.006Z,0.40
2022-08-07T10:50:54.931Z,0.60
2022-08-07T10:54:00.135Z,0.60
2022-08-07T10:57:07.390Z,0.52
2022-08-07T11:00:39.281Z,0.50
2022-08-07T11:03:28.106Z,0.47
2022-08-07T11:06:50.585Z,0.90
2022-08-07T11:10:08.855Z,0.90
2022-08-07T11:13:02.277Z,0.65
2022-08-07T11:15:40.639Z,0.70
2022-08-07T11:19:13.189Z,0.60
2022-08-07T11:22:32.440Z,0.60
2022-08-07T11:26:22.177Z,0.88
2022-08-07T11:29:42.977Z,0.50
2022-08-07T11:32:25.787Z,0.60
2022-08-07T11:36:10.448Z,0.38
2022-08-07T11:38:50.416Z,0.52
2022-08-07T11:42:01.851Z,0.63
2022-08-07T11:44:52.720Z,0.60
2022-08-07T11:48:44.179Z,0.63
2022-08-07T11:51:46.688Z,0.50
2022-08-07T11:54:57.644Z,0.60
2022-08-07T11:58:14.521Z,0.60
2022-08-07T12:02:01.087Z,0.40
2022-08-07T12:05:49.094Z,0.93
2022-08-07T12:08:34.575Z,0.70
2022-08-07T12:11:32.218Z,0.70
2022-08-07T12:15:35.479Z,0.70
2022-08-07T12:18:29.726Z,0.73
2022-08-07T12:22:38.899Z,0.80
2022-08-07T12:26:23.318Z,0.75
2022-08-07T12:29:12.410Z,0.57
2022-08-07T12:32:57.732Z,0.60
2022-08-07T12:36:49.583Z,0.55
2022-08-07T12:40:50.875Z,0.70
2022-08-07T12:44:34.657Z,0.70
2022-08-07T12:47:30.437Z,0.60
2022-08-07T12:51:17.595Z,0.60
2022-08-07T12:55:05.520Z,0.70
2022-08-07T12:58:02.198Z,0.80
2022-08-07T13:01:45.345Z,0.50
2022-08-07T13:06:04.464Z,0.70
2022-08-07T13:08:51.770Z,0.60
2022-08-07T13:12:03.117Z,0.68
2022-08-07T13:15:44.764Z,0.73
2022-08-07T13:19:35.133Z,0.70
2022-08-07T13:24:01.244Z,0.70
2022-08-07T13:26:26.556Z,0.60
2022-08-07T13:29:25.905Z,0.70
2022-08-07T13:32:23.607Z,0.52
2022-08-07T13:35:21.460Z,0.80
2022-08-07T13:38:21.083Z,0.70
2022-08-07T13:41:11.205Z,0.93
2022-08-07T13:43:52.853Z,0.70
2022-08-07T13:46:49.070Z,0.60
2022-08-07T13:50:33.872Z,0.80
2022-08-07T13:52:30.649Z,0.80
2022-08-07T13:55:10.742Z,0.60
2022-08-07T13:57:59.114Z,0.70
2022-08-07T14:00:54.119Z,0.77
2022-08-07T14:04:05.494Z,0.70
2022-08-07T14:06:33.279Z,0.95
2022-08-07T14:09:17.133Z,0.80
2022-08-07T14:13:02.060Z,0.80
2022-08-07T14:15:43.638Z,0.90
2022-08-07T14:18:30.431Z,0.73
2022-08-07T14:22:02.317Z,1.00
2022-08-07T14:24:19.378Z,0.80
2022-08-07T14:28:09.552Z,0.70
2022-08-07T14:30:14.497Z,0.90
2022-08-07T14:33:17.486Z,0.75
2022-08-07T14:35:59.272Z,0.68
2022-08-07T14:38:36.857Z,0.80
2022-08-07T14:41:33.885Z,0.73
2022-08-07T14:45:46.302Z,0.70
2022-08-07T14:49:57.934Z,1.00
2022-08-07T14:53:07.939Z,0.80
2022-08-07T14:58:34.225Z,0.93
2022-08-07T15:02:32.145Z,0.80
2022-08-07T15:05:05.027Z,0.80
2022-08-07T15:09:57.659Z,0.90
2022-08-07T15:13:11.570Z,0.90
2022-08-07T15:15:52.692Z,0.70
2022-08-07T15:21:44.011Z,0.90
2022-08-07T15:28:56.729Z,0.80
2022-08-07T15:33:04.080Z,0.63
2022-08-07T15:37:03.786Z,0.80
2022-08-07T15:39:56.805Z,1.90
2022-08-07T15:43:55.804Z,0.80
2022-08-07T15:46:31.868Z,1.00
2022-08-07T15:52:08.565Z,0.80
2022-08-07T15:54:43.809Z,0.90
2022-08-07T15:57:47.528Z,0.98
2022-08-07T16:00:33.472Z,0.90
2022-08-07T16:03:46.114Z,0.80
2022-08-07T16:06:19.865Z,0.80
2022-08-07T16:08:53.788Z,0.90
2022-08-07T16:12:38.972Z,0.88
2022-08-07T16:15:57.294Z,1.00
2022-08-07T16:18:49.744Z,0.90
2022-08-07T16:22:04.956Z,1.02
2022-08-07T16:24:52.357Z,0.90
2022-08-07T16:29:18.729Z,0.80
2022-08-07T16:31:51.005Z,1.48
2022-08-07T16:34:48.114Z,0.90
2022-08-07T16:38:06.538Z,0.75
2022-08-07T16:41:23.291Z,0.93
2022-08-07T16:44:55.363Z,0.85
2022-08-07T16:47:56.672Z,0.90
2022-08-07T16:51:54.530Z,0.90
2022-08-07T16:54:55.000Z,0.90
2022-08-07T16:58:02.412Z,2.28
2022-08-07T17:00:44.938Z,2.13
2022-08-07T17:03:58.083Z,1.02
2022-08-07T17:07:51.483Z,0.80
2022-08-07T17:10:32.569Z,0.68
2022-08-07T17:13:20.288Z,1.13
2022-08-07T17:16:05.883Z,0.82
2022-08-07T17:18:46.032Z,0.73
2022-08-07T17:21:51.534Z,0.80
2022-08-07T17:25:13.331Z,0.90
2022-08-07T17:28:06.987Z,0.70
2022-08-07T17:31:16.311Z,0.90
2022-08-07T17:34:57.234Z,0.90
2022-08-07T17:38:06.643Z,0.80
2022-08-07T17:41:12.288Z,0.90
2022-08-07T17:44:45.565Z,0.93
2022-08-07T17:48:48.179Z,0.90
2022-08-07T17:51:59.947Z,1.17
2022-08-07T17:55:04.351Z,0.98
2022-08-07T17:58:05.106Z,0.93
2022-08-07T18:01:56.920Z,0.73
2022-08-07T18:06:01.574Z,0.80
2022-08-07T18:10:04.666Z,0.90
2022-08-07T18:13:48.839Z,0.63
2022-08-07T18:16:57.467Z,0.80
2022-08-07T18:21:02.300Z,0.60
2022-08-07T18:23:58.721Z,0.68
2022-08-07T18:26:56.800Z,0.73
2022-08-07T18:30:40.507Z,0.73
2022-08-07T18:34:40.761Z,0.60
2022-08-07T18:38:59.081Z,0.90
2022-08-07T18:41:45.924Z,0.80
2022-08-07T18:45:39.952Z,1.00
2022-08-07T18:50:05.485Z,0.88
2022-08-07T18:52:37.613Z,0.80
2022-08-07T18:55:43.284Z,0.70
2022-08-07T18:59:47.883Z,0.75
2022-08-07T19:02:55.997Z,0.70
2022-08-07T19:06:03.670Z,0.75
2022-08-07T19:09:09.535Z,0.70
2022-08-07T19:12:48.953Z,0.60
2022-08-07T19:16:05.503Z,0.90
2022-08-07T19:19:14.445Z,0.80
2022-08-07T19:22:05.219Z,0.85
2022-08-07T19:26:25.327Z,0.68
2022-08-07T19:30:54.655Z,0.80
2022-08-07T19:32:06.818Z,0.70
2022-08-07T19:35:50.756Z,0.73
2022-08-07T19:39:56.606Z,0.60
2022-08-07T19:43:48.980Z,0.63
2022-08-07T19:46:29.179Z,0.70
2022-08-07T19:49:19.355Z,1.10
2022-08-07T19:52:07.040Z,0.82
2022-08-07T19:54:56.362Z,0.80
2022-08-07T19:58:04.126Z,0.77
2022-08-07T20:01:57.188Z,0.63
2022-08-07T20:04:38.156Z,1.02
2022-08-07T20:08:24.607Z,0.73
2022-08-07T20:12:31.655Z,0.65
2022-08-07T20:16:22.435Z,0.52
2022-08-07T20:20:15.210Z,0.80
2022-08-07T20:22:47.053Z,0.82
2022-08-07T20:25:19.751Z,0.68
2022-08-07T20:27:57.856Z,0.70
2022-08-07T20:30:41.253Z,0.65
2022-08-07T20:33:36.416Z,0.70
2022-08-07T20:36:08.874Z,0.60
2022-08-07T20:38:59.439Z,0.70
2022-08-07T20:41:38.187Z,0.93
2022-08-07T20:44:12.866Z,1.00
2022-08-07T20:46:45.040Z,1.20
2022-08-07T20:49:59.424Z,0.90
2022-08-07T20:52:16.510Z,1.30
2022-08-07T20:54:53.718Z,0.90
2022-08-07T20:57:29.152Z,1.20
2022-08-07T21:00:09.432Z,1.30
2022-08-07T21:02:58.738Z,1.00
2022-08-07T21:05:51.501Z,0.82
2022-08-07T21:08:46.755Z,0.90
2022-08-07T21:11:40.281Z,1.00
2022-08-07T21:14:32.038Z,0.90
2022-08-07T21:18:04.071Z,0.80
2022-08-07T21:20:05.278Z,1.20
2022-08-07T21:22:51.340Z,1.10
2022-08-07T21:25:29.976Z,0.95
2022-08-07T21:28:48.388Z,1.10
2022-08-07T21:32:42.969Z,1.13
2022-08-07T21:34:48.589Z,1.10
2022-08-07T21:37:58.610Z,0.90
2022-08-07T21:40:41.937Z,1.10
2022-08-07T21:43:22.809Z,1.02
2022-08-07T21:46:47.558Z,0.82
2022-08-07T21:50:02.675Z,0.80
2022-08-07T21:53:12.945Z,0.93
2022-08-07T21:56:02.272Z,1.02
2022-08-07T22:00:04.461Z,1.05
2022-08-07T22:03:48.458Z,0.95
2022-08-07T22:06:33.864Z,1.30
2022-08-07T22:10:16.805Z,1.20
2022-08-07T22:13:02.675Z,1.20
2022-08-07T22:16:42.807Z,0.90
2022-08-07T22:20:28.495Z,1.00
2022-08-07T22:24:11.338Z,1.50
2022-08-07T22:28:07.832Z,1.48
2022-08-07T22:32:05.268Z,1.00
2022-08-07T22:35:48.849Z,1.15
2022-08-07T22:39:35.200Z,1.20
2022-08-07T22:43:34.181Z,0.90
2022-08-07T22:47:17.166Z,1.00
2022-08-07T22:51:00.206Z,0.90
2022-08-07T22:54:49.017Z,1.13
2022-08-07T22:58:10.391Z,0.98
2022-08-07T23:01:53.729Z,1.08
2022-08-07T23:06:09.688Z,1.02
2022-08-07T23:10:00.681Z,1.08
2022-08-07T23:12:47.903Z,0.80
2022-08-07T23:16:44.757Z,1.10
2022-08-07T23:20:52.310Z,1.00
2022-08-07T23:24:06.043Z,0.93
2022-08-07T23:28:20.268Z,0.70
2022-08-07T23:32:49.238Z,0.70
2022-08-07T23:35:37.246Z,1.05
2022-08-07T23:38:55.182Z,1.00
2022-08-07T23:42:38.047Z,0.95
2022-08-07T23:46:23.665Z,1.02
2022-08-07T23:50:06.647Z,0.80
2022-08-07T23:53:53.995Z,1.00
2022-08-07T23:56:38.839Z,0.90
